createdAt,value
2022-10-31T00:01:37.598Z,17.40
2022-10-31T00:04:25.682Z,19.38
2022-10-31T00:07:13.797Z,15.07
2022-10-31T00:10:01.817Z,22.48
2022-10-31T00:12:49.842Z,19.27
2022-10-31T00:15:41.515Z,28.08
2022-10-31T00:18:29.675Z,18.48
2022-10-31T00:21:17.734Z,29.73
2022-10-31T00:24:06.516Z,25.17
2022-10-31T00:26:54.416Z,18.60
2022-10-31T00:29:42.449Z,20.15
2022-10-31T00:32:31.481Z,24.38
2022-10-31T00:35:19.261Z,18.83
2022-10-31T00:38:07.360Z,21.30
2022-10-31T00:40:55.541Z,19.42
2022-10-31T00:43:44.529Z,25.05
2022-10-31T00:46:32.674Z,24.42
2022-10-31T00:49:20.657Z,24.08
2022-10-31T00:52:08.854Z,17.90
2022-10-31T00:54:56.893Z,17.85
2022-10-31T00:57:48.787Z,19.20
2022-10-31T01:00:36.633Z,20.70
2022-10-31T01:03:27.925Z,26.85
2022-10-31T01:06:17.043Z,21.23
2022-10-31T01:09:05.239Z,23.25
2022-10-31T01:11:53.310Z,19.55
2022-10-31T01:14:47.250Z,22.63
2022-10-31T01:17:35.891Z,20.95
2022-10-31T01:20:23.813Z,23.88
2022-10-31T01:23:11.942Z,25.38
2022-10-31T01:26:07.602Z,23.85
2022-10-31T01:28:59.286Z,23.85
2022-10-31T01:31:47.321Z,22.88
2022-10-31T01:34:35.956Z,21.55
2022-10-31T01:37:24.102Z,18.55
2022-10-31T01:40:12.166Z,20.13
2022-10-31T01:43:00.411Z,20.15
2022-10-31T01:45:55.203Z,20.45
2022-10-31T01:48:43.547Z,21.80
2022-10-31T01:51:36.896Z,19.30
2022-10-31T01:54:38.920Z,22.65
2022-10-31T01:57:27.711Z,22.33
2022-10-31T02:00:16.322Z,20.90
2022-10-31T02:03:04.632Z,19.98
2022-10-31T02:05:56.080Z,22.48
2022-10-31T02:08:44.848Z,21.90
2022-10-31T02:11:34.402Z,26.67
2022-10-31T02:14:29.385Z,20.95
2022-10-31T02:17:17.669Z,22.10
2022-10-31T02:20:17.107Z,22.55
2022-10-31T02:23:33.509Z,21.42
2022-10-31T02:26:39.197Z,25.70
2022-10-31T02:29:51.278Z,19.95
2022-10-31T02:33:05.587Z,21.92
2022-10-31T02:36:25.854Z,24.20
2022-10-31T02:39:21.890Z,24.42
2022-10-31T02:42:41.063Z,27.77
2022-10-31T02:46:03.525Z,23.25
2022-10-31T02:48:56.459Z,25.55
2022-10-31T02:51:45.251Z,19.83
2022-10-31T02:54:33.572Z,24.67
2022-10-31T02:57:33.484Z,23.98
2022-10-31T03:00:21.688Z,22.90
2022-10-31T03:03:46.123Z,23.23
2022-10-31T03:06:58.120Z,24.05
2022-10-31T03:09:57.381Z,29.75
2022-10-31T03:13:10.810Z,26.85
2022-10-31T03:16:25.109Z,22.88
2022-10-31T03:19:20.738Z,26.00
2022-10-31T03:22:18.199Z,33.28
2022-10-31T03:25:07.188Z,19.92
2022-10-31T03:27:56.333Z,21.65
2022-10-31T03:30:46.721Z,26.77
2022-10-31T03:33:40.140Z,27.20
2022-10-31T03:36:31.174Z,28.03
2022-10-31T03:39:22.249Z,23.17
2022-10-31T03:42:19.799Z,35.75
2022-10-31T03:45:14.291Z,32.42
2022-10-31T03:48:02.945Z,33.72
2022-10-31T03:51:17.576Z,38.13
2022-10-31T03:54:47.656Z,31.40
2022-10-31T03:57:47.047Z,31.13
2022-10-31T04:00:41.985Z,32.08
2022-10-31T04:03:37.224Z,33.33
2022-10-31T04:06:26.341Z,26.02
2022-10-31T04:09:15.267Z,26.35
2022-10-31T04:12:09.970Z,31.98
2022-10-31T04:14:58.637Z,30.20
2022-10-31T04:17:50.737Z,29.73
2022-10-31T04:20:41.905Z,27.48
2022-10-31T04:23:30.652Z,29.58
2022-10-31T04:26:18.620Z,23.27
2022-10-31T04:29:06.628Z,32.42
2022-10-31T04:31:54.635Z,29.42
2022-10-31T04:34:42.622Z,27.35
2022-10-31T04:37:30.684Z,30.60
2022-10-31T04:40:18.755Z,27.65
2022-10-31T04:43:06.689Z,28.17
2022-10-31T04:45:55.018Z,35.80
2022-10-31T04:48:43.338Z,29.83
2022-10-31T04:51:33.841Z,29.08
2022-10-31T04:54:21.879Z,24.05
2022-10-31T04:57:12.898Z,23.00
2022-10-31T05:00:00.933Z,23.80
2022-10-31T05:02:57.579Z,22.85
2022-10-31T05:05:46.004Z,28.15
2022-10-31T05:08:34.096Z,32.92
2022-10-31T05:11:22.105Z,29.98
2022-10-31T05:14:10.099Z,23.33
2022-10-31T05:16:58.109Z,31.40
2022-10-31T05:19:46.254Z,24.08
2022-10-31T05:22:34.288Z,25.63
2022-10-31T05:25:27.816Z,29.55
2022-10-31T05:28:15.756Z,32.85
2022-10-31T05:31:04.114Z,28.92
2022-10-31T05:33:52.450Z,27.50
2022-10-31T05:36:40.434Z,27.23
2022-10-31T05:39:28.436Z,27.92
2022-10-31T05:42:16.334Z,39.63
2022-10-31T05:45:04.906Z,33.00
2022-10-31T05:48:01.740Z,36.67
2022-10-31T05:50:51.054Z,30.15
2022-10-31T05:53:39.229Z,29.08
2022-10-31T05:56:27.253Z,29.00
2022-10-31T05:59:15.186Z,34.97
2022-10-31T06:02:03.146Z,33.22
2022-10-31T06:40:25.564Z,24.50
2022-10-31T08:24:12.726Z,14.30
2022-10-31T08:46:31.857Z,17.50
2022-10-31T08:55:32.867Z,19.58
2022-10-31T08:59:02.356Z,13.95
2022-10-31T09:55:50.822Z,16.97
2022-10-31T12:07:34.990Z,15.63
2022-10-31T12:32:24.550Z,16.83
2022-10-31T13:52:59.242Z,24.98
2022-10-31T13:56:15.802Z,10.88
2022-10-31T13:59:34.454Z,11.27
2022-10-31T14:02:45.798Z,14.32
2022-10-31T14:05:56.437Z,17.10
2022-10-31T14:08:56.331Z,12.38
2022-10-31T14:12:40.593Z,12.98
2022-10-31T14:15:41.691Z,19.50
2022-10-31T14:20:25.844Z,18.20
2022-10-31T14:23:58.223Z,10.88
2022-10-31T14:41:16.542Z,17.08
2022-10-31T14:45:13.116Z,17.75
2022-10-31T14:51:14.181Z,15.88
2022-10-31T14:54:19.071Z,13.23
2022-10-31T14:57:59.510Z,9.93
2022-10-31T15:01:19.639Z,16.65
2022-10-31T15:04:37.533Z,11.90
2022-10-31T15:07:32.429Z,14.05
2022-10-31T15:10:43.498Z,17.60
2022-10-31T15:13:40.145Z,11.43
2022-10-31T15:28:35.677Z,13.25
2022-10-31T15:32:20.259Z,17.40
2022-10-31T15:35:27.162Z,18.63
2022-10-31T15:41:33.093Z,14.52
2022-10-31T15:44:31.738Z,16.05
2022-10-31T15:47:34.094Z,14.98
2022-10-31T15:50:48.054Z,15.32
2022-10-31T15:53:50.617Z,19.17
2022-10-31T15:56:39.431Z,14.75
2022-10-31T15:59:58.603Z,13.95
2022-10-31T16:02:46.851Z,12.00
2022-10-31T16:31:35.380Z,23.25
2022-10-31T16:34:33.700Z,26.25
2022-10-31T16:37:37.059Z,16.77
2022-10-31T16:40:26.473Z,28.70
2022-10-31T16:43:22.105Z,25.92
2022-10-31T16:46:38.331Z,24.70
2022-10-31T16:49:33.315Z,23.38
2022-10-31T16:52:21.659Z,21.80
2022-10-31T17:03:53.498Z,30.00
2022-10-31T17:11:22.734Z,25.52
2022-10-31T17:14:19.280Z,24.95
2022-10-31T17:17:09.290Z,22.27
2022-10-31T17:20:04.500Z,23.10
2022-10-31T17:23:24.246Z,21.90
2022-10-31T17:26:17.702Z,20.75
2022-10-31T17:29:19.047Z,20.23
2022-10-31T17:32:17.743Z,25.13
2022-10-31T17:37:49.260Z,18.15
2022-10-31T17:40:42.843Z,21.27
2022-10-31T17:44:07.339Z,26.83
2022-10-31T17:47:04.729Z,24.50
2022-10-31T17:49:55.791Z,18.73
2022-10-31T18:02:48.041Z,37.22
2022-10-31T18:05:39.746Z,22.58
2022-10-31T18:08:36.640Z,23.42
2022-10-31T18:11:29.123Z,29.85
2022-10-31T18:15:08.385Z,22.42
2022-10-31T18:46:24.395Z,23.10
2022-10-31T18:49:24.294Z,26.92
2022-10-31T18:52:51.999Z,28.02
2022-10-31T18:55:50.221Z,25.67
2022-10-31T18:58:45.746Z,24.42
2022-10-31T19:01:49.715Z,33.10
2022-10-31T19:07:36.110Z,24.33
2022-10-31T19:10:47.395Z,21.42
2022-10-31T19:14:17.776Z,21.80
2022-10-31T19:17:10.860Z,30.60
2022-10-31T19:20:26.121Z,24.08
2022-10-31T19:23:18.250Z,21.50
2022-10-31T19:29:50.191Z,32.63
2022-10-31T19:36:14.861Z,24.85
2022-10-31T19:39:15.712Z,58.97
2022-10-31T19:42:12.333Z,28.23
2022-10-31T19:45:10.345Z,23.15
2022-10-31T19:48:18.449Z,21.52
2022-10-31T19:51:25.575Z,18.52
2022-10-31T19:54:13.983Z,25.73
2022-10-31T19:57:06.466Z,26.20
2022-10-31T20:00:08.276Z,27.50
2022-10-31T20:03:06.970Z,28.10
2022-10-31T20:06:07.704Z,24.35
2022-10-31T20:09:07.607Z,28.15
2022-10-31T20:12:02.935Z,29.48
2022-10-31T20:14:56.699Z,31.02
2022-10-31T20:17:51.062Z,24.10
2022-10-31T20:21:03.683Z,23.95
2022-10-31T20:24:16.048Z,30.80
2022-10-31T20:27:11.258Z,32.65
2022-10-31T20:30:04.251Z,33.42
2022-10-31T20:32:54.985Z,34.92
2022-10-31T20:35:44.226Z,41.85
2022-10-31T20:38:39.072Z,32.47
2022-10-31T20:41:29.615Z,33.60
2022-10-31T20:44:26.693Z,30.25
2022-10-31T20:47:20.671Z,29.20
2022-10-31T20:50:17.262Z,36.38
2022-10-31T20:53:20.114Z,36.15
2022-10-31T20:56:19.640Z,29.00
2022-10-31T20:59:15.367Z,32.67
2022-10-31T21:02:10.189Z,36.33
2022-10-31T21:04:58.632Z,42.97
2022-10-31T21:07:47.779Z,37.78
2022-10-31T21:10:36.662Z,44.20
2022-10-31T21:13:32.518Z,36.50
2022-10-31T21:16:31.143Z,32.40
2022-10-31T21:19:31.577Z,32.22
2022-10-31T21:22:19.852Z,38.00
2022-10-31T21:25:08.856Z,38.33
2022-10-31T21:28:00.645Z,40.35
2022-10-31T21:30:51.996Z,39.55
2022-10-31T21:33:44.188Z,40.10
2022-10-31T21:36:36.912Z,34.38
2022-10-31T21:39:25.315Z,39.95
2022-10-31T21:42:18.934Z,34.90
2022-10-31T21:45:12.278Z,38.33
2022-10-31T21:48:03.106Z,32.38
2022-10-31T21:50:51.067Z,31.30
2022-10-31T21:54:01.306Z,38.88
2022-10-31T21:56:49.822Z,34.63
2022-10-31T21:59:45.871Z,36.38
2022-10-31T22:02:43.340Z,35.42
2022-10-31T22:05:31.782Z,38.83
2022-10-31T22:08:20.029Z,36.50
2022-10-31T22:11:13.884Z,35.35
2022-10-31T22:14:03.817Z,31.73
2022-10-31T22:16:52.009Z,38.40
2022-10-31T22:19:40.233Z,34.70
2022-10-31T22:22:28.238Z,39.35
2022-10-31T22:25:16.299Z,31.40
2022-10-31T22:28:08.111Z,38.35
2022-10-31T22:30:58.680Z,33.85
2022-10-31T22:33:48.137Z,33.30
2022-10-31T22:36:37.912Z,30.33
2022-10-31T22:39:25.921Z,29.95
2022-10-31T22:42:14.023Z,29.90
2022-10-31T22:45:02.909Z,31.52
2022-10-31T22:47:51.419Z,29.20
2022-10-31T22:50:39.636Z,36.67
2022-10-31T22:53:27.903Z,35.58
2022-10-31T22:56:20.579Z,25.83
2022-10-31T22:59:12.387Z,34.83
2022-10-31T23:02:00.752Z,29.60
2022-10-31T23:04:49.039Z,28.63
2022-10-31T23:07:37.162Z,34.40
2022-10-31T23:10:33.428Z,38.22
2022-10-31T23:13:43.002Z,25.35
2022-10-31T23:16:31.340Z,26.63
2022-10-31T23:19:33.323Z,30.05
2022-10-31T23:22:24.523Z,34.53
2022-10-31T23:25:12.632Z,27.08
2022-10-31T23:28:00.761Z,27.85
2022-10-31T23:30:49.113Z,25.88
2022-10-31T23:33:37.257Z,29.15
2022-10-31T23:36:28.464Z,31.50
2022-10-31T23:39:19.916Z,26.77
2022-10-31T23:42:11.156Z,28.38
2022-10-31T23:44:59.301Z,24.90
2022-10-31T23:47:47.596Z,24.92
2022-10-31T23:50:37.121Z,24.50
2022-10-31T23:53:25.249Z,25.58
2022-10-31T23:56:14.465Z,24.17
2022-10-31T23:59:03.006Z,22.77
